Bloomingdale, Tennessee
Current Conditions -  °F | °C
As of 2:53 AM on Thursday 23 Oct 2014 (Local Time) from KTRI Reporting Station
Overcast Overcast  
Wind Chill: 45°   Ceiling: 2900
Heat Index: 48°   Visibility: 10mi
Dew Point: 39°   Wind: 7mph
Humidity: 71%   Direction: 350°N
Pressure: 30.19"   Gusts: NA
Location:  36.58°N, 82.49°W
Report Text: KTRI 230653Z 35006KT 10SM OVC029 09/04 A3019 RMK AO2 SLP211 T00890039
Loading
Personal Weather Stations






























Interactive Weather Map
Tropical Storm Tracking
New forecast layout! Learn more

10-Day Weather Forecast

Advertisements
Track Severe Weather on mobile